Spring's Hourly Summary for Thursday, May 10, 2018
Hour Temp
(f)
RH
(%)
Solar Rad.
(MJ/m2)
Rainfall
(in)
Wind
(mph)
5/10/2018 12:00 AM 73 61 0 0 2.73
5/10/2018 1:00 AM 70 70 0 0 0.86
5/10/2018 2:00 AM 67 79 0 0 0.24
5/10/2018 3:00 AM 65 86 0 0 0
5/10/2018 4:00 AM 64 91 0 0 0.07
5/10/2018 5:00 AM 64 94 0 0 0.06
5/10/2018 6:00 AM 64 95 0 0 0.01
5/10/2018 7:00 AM 63 96 0.02 0 0
5/10/2018 8:00 AM 65 91 0.46 0 0.34
5/10/2018 9:00 AM 72 79 1.19 0 1.93
5/10/2018 10:00 AM 76 63 1.88 0 6.12
5/10/2018 11:00 AM 80 43 1.91 0 7.59
5/10/2018 12:00 PM 82 43 3.24 0 9.05
5/10/2018 1:00 PM 83 40 3.06 0 7.71
5/10/2018 2:00 PM 85 35 3.4 0 7.87
5/10/2018 3:00 PM 86 32 3.3 0 7.69
5/10/2018 4:00 PM 86 36 2.44 0 7.93
5/10/2018 5:00 PM 86 35 1.9 0 8.77
5/10/2018 6:00 PM 85 40 1.54 0 8.45
5/10/2018 7:00 PM 84 40 1.17 0 8.69
5/10/2018 8:00 PM 82 39 0.32 0 8.12
5/10/2018 9:00 PM 79 41 0.01 0 5.55
5/10/2018 10:00 PM 77 44 0 0 4.9
5/10/2018 11:00 PM 75 53 0 0 5.47
Data Summary 75 59 25.84 0.00 4.59